createdAt,value
2018-03-02T00:01:37.409Z,24.40
2018-03-02T00:04:08.485Z,24.83
2018-03-02T00:06:39.446Z,24.90
2018-03-02T00:09:10.476Z,28.15
2018-03-02T00:11:41.480Z,25.02
2018-03-02T00:14:12.510Z,26.33
2018-03-02T00:16:43.529Z,23.77
2018-03-02T00:19:14.549Z,26.65
2018-03-02T00:21:45.546Z,25.58
2018-03-02T00:24:16.557Z,27.85
2018-03-02T00:26:47.536Z,24.87
2018-03-02T00:29:18.529Z,25.12
2018-03-02T00:31:49.553Z,25.15
2018-03-02T00:34:20.540Z,24.70
2018-03-02T00:36:51.541Z,24.87
2018-03-02T00:39:22.511Z,27.15
2018-03-02T00:41:53.509Z,26.90
2018-03-02T00:44:24.524Z,25.55
2018-03-02T00:46:55.522Z,25.55
2018-03-02T00:49:26.525Z,26.23
2018-03-02T00:51:57.567Z,25.98
2018-03-02T00:54:28.567Z,26.67
2018-03-02T00:57:00.534Z,26.30
2018-03-02T00:59:31.506Z,26.70
2018-03-02T01:02:02.535Z,28.17
2018-03-02T01:04:33.519Z,25.92
2018-03-02T01:07:04.538Z,25.60
2018-03-02T01:09:35.541Z,25.15
2018-03-02T01:12:06.633Z,25.67
2018-03-02T01:14:37.629Z,25.05
2018-03-02T01:17:08.645Z,25.40
2018-03-02T01:19:39.628Z,26.50
2018-03-02T01:22:10.637Z,26.17
2018-03-02T01:24:41.686Z,27.05
2018-03-02T01:27:12.657Z,26.37
2018-03-02T01:29:43.695Z,25.50
2018-03-02T01:32:14.687Z,25.88
2018-03-02T01:34:45.723Z,25.48
2018-03-02T01:37:16.697Z,25.88
2018-03-02T01:39:47.695Z,24.92
2018-03-02T01:42:18.693Z,23.62
2018-03-02T01:44:49.647Z,25.00
2018-03-02T01:47:20.656Z,26.17
2018-03-02T01:49:51.628Z,23.90
2018-03-02T01:52:22.651Z,26.30
2018-03-02T01:54:54.053Z,24.55
2018-03-02T01:57:25.038Z,26.58
2018-03-02T01:59:56.007Z,25.45
2018-03-02T02:02:27.030Z,24.30
2018-03-02T02:04:58.020Z,23.95
2018-03-02T02:07:28.972Z,26.33
2018-03-02T02:09:59.990Z,25.90
2018-03-02T02:12:31.014Z,26.95
2018-03-02T02:15:02.040Z,26.60
2018-03-02T02:17:33.035Z,24.27
2018-03-02T02:20:03.993Z,26.33
2018-03-02T02:22:35.009Z,24.75
2018-03-02T02:25:06.009Z,26.23
2018-03-02T02:27:37.014Z,27.08
2018-03-02T02:30:08.033Z,26.67
2018-03-02T02:32:38.991Z,24.40
2018-03-02T02:35:09.934Z,25.63
2018-03-02T02:37:40.948Z,26.87
2018-03-02T02:40:11.945Z,25.80
2018-03-02T02:42:42.965Z,26.87
2018-03-02T02:45:13.966Z,26.75
2018-03-02T02:47:44.951Z,28.42
2018-03-02T02:50:16.002Z,27.45
2018-03-02T02:52:47.055Z,27.98
2018-03-02T02:55:18.063Z,27.15
2018-03-02T02:57:49.068Z,27.58
2018-03-02T03:00:20.033Z,26.10
2018-03-02T03:02:51.054Z,21.85
2018-03-02T03:05:22.044Z,27.10
2018-03-02T03:07:53.054Z,26.48
2018-03-02T03:10:24.025Z,26.83
2018-03-02T03:12:55.027Z,27.92
2018-03-02T03:15:26.021Z,28.95
2018-03-02T03:17:56.975Z,26.45
2018-03-02T03:20:27.989Z,28.33
2018-03-02T03:22:58.938Z,26.65
2018-03-02T03:25:29.936Z,26.77
2018-03-02T03:28:00.934Z,26.60
2018-03-02T03:30:31.952Z,27.45
2018-03-02T03:33:02.941Z,26.92
2018-03-02T03:35:33.958Z,25.58
2018-03-02T03:38:04.995Z,26.50
2018-03-02T03:40:35.976Z,27.65
2018-03-02T03:43:06.975Z,26.98
2018-03-02T03:45:37.943Z,27.17
2018-03-02T03:48:08.929Z,28.38
2018-03-02T03:50:39.901Z,26.98
2018-03-02T03:53:10.923Z,26.70
2018-03-02T03:55:41.935Z,24.48
2018-03-02T03:58:12.944Z,27.27
2018-03-02T04:00:43.923Z,27.27
2018-03-02T04:03:14.902Z,24.45
2018-03-02T04:05:45.896Z,25.95
2018-03-02T04:08:16.895Z,28.05
2018-03-02T04:10:47.878Z,27.87
2018-03-02T04:13:18.899Z,26.87
2018-03-02T04:15:49.894Z,28.87
2018-03-02T04:18:20.910Z,26.65
2018-03-02T04:20:51.907Z,26.83
2018-03-02T04:23:22.942Z,23.85
2018-03-02T04:25:53.898Z,26.17
2018-03-02T04:28:24.940Z,25.95
2018-03-02T04:30:55.887Z,28.27
2018-03-02T04:33:26.825Z,28.10
2018-03-02T04:35:57.841Z,26.50
2018-03-02T04:38:28.803Z,27.75
2018-03-02T04:40:59.817Z,26.90
2018-03-02T04:43:30.802Z,29.12
2018-03-02T04:46:01.896Z,29.40
2018-03-02T04:48:32.838Z,28.65
2018-03-02T04:51:03.829Z,27.03
2018-03-02T04:53:34.844Z,29.33
2018-03-02T04:56:05.804Z,31.30
2018-03-02T04:58:36.789Z,26.93
2018-03-02T05:01:07.820Z,26.60
2018-03-02T05:03:38.804Z,26.33
2018-03-02T05:06:09.818Z,27.58
2018-03-02T05:08:40.795Z,26.48
2018-03-02T05:11:11.799Z,27.35
2018-03-02T05:13:42.776Z,27.48
2018-03-02T05:16:13.801Z,29.00
2018-03-02T05:18:44.812Z,30.27
2018-03-02T05:21:15.769Z,27.95
2018-03-02T05:23:46.776Z,27.90
2018-03-02T05:26:17.777Z,29.33
2018-03-02T05:28:48.758Z,28.40
2018-03-02T05:31:19.739Z,29.95
2018-03-02T05:33:50.777Z,28.30
2018-03-02T05:36:21.747Z,30.42
2018-03-02T05:38:52.784Z,28.73
2018-03-02T05:41:23.966Z,30.88
2018-03-02T05:43:55.016Z,26.55
2018-03-02T05:46:26.036Z,29.35
2018-03-02T05:48:57.000Z,27.23
2018-03-02T05:51:27.981Z,29.83
2018-03-02T05:53:58.984Z,30.15
2018-03-02T05:56:30.019Z,28.25
2018-03-02T05:59:00.997Z,31.52
2018-03-02T06:01:31.989Z,28.90
2018-03-02T06:04:03.042Z,30.58
2018-03-02T06:06:34.041Z,28.00
2018-03-02T06:09:05.070Z,30.02
2018-03-02T06:11:36.064Z,30.98
2018-03-02T06:14:07.068Z,31.17
2018-03-02T06:16:38.044Z,31.52
2018-03-02T06:19:09.028Z,29.80
2018-03-02T06:21:40.014Z,32.10
2018-03-02T06:24:10.975Z,31.05
2018-03-02T06:26:41.951Z,32.20
2018-03-02T06:29:12.987Z,32.85
2018-03-02T06:31:43.968Z,31.95
2018-03-02T06:34:14.992Z,29.65
2018-03-02T06:36:46.020Z,29.73
2018-03-02T06:39:16.987Z,30.85
2018-03-02T06:41:47.984Z,31.47
2018-03-02T06:44:18.975Z,32.08
2018-03-02T06:46:50.007Z,31.65
2018-03-02T06:49:20.976Z,32.25
2018-03-02T06:51:51.957Z,29.20
2018-03-02T06:54:22.994Z,31.48
2018-03-02T06:56:53.990Z,27.83
2018-03-02T06:59:25.050Z,27.73
2018-03-02T07:01:56.069Z,30.40
2018-03-02T07:04:27.075Z,28.95
2018-03-02T07:06:58.104Z,29.50
2018-03-02T07:09:29.109Z,31.05
2018-03-02T07:12:00.062Z,29.58
2018-03-02T07:14:31.065Z,30.30
2018-03-02T07:17:02.079Z,29.60
2018-03-02T07:19:33.042Z,28.35
2018-03-02T07:22:04.028Z,28.47
2018-03-02T07:24:35.014Z,31.75
2018-03-02T07:27:06.008Z,28.80
2018-03-02T07:29:37.024Z,28.73
2018-03-02T07:32:08.034Z,27.62
2018-03-02T07:34:39.023Z,28.98
2018-03-02T07:37:10.011Z,27.15
2018-03-02T07:39:41.065Z,28.70
2018-03-02T07:42:12.029Z,29.50
2018-03-02T07:44:43.029Z,28.97
2018-03-02T07:47:14.017Z,29.48
2018-03-02T07:49:45.060Z,29.25
2018-03-02T07:52:16.075Z,29.20
2018-03-02T07:54:47.077Z,24.92
2018-03-02T07:57:18.096Z,26.92
2018-03-02T07:59:49.113Z,29.67
2018-03-02T08:02:20.114Z,28.87
2018-03-02T08:04:51.093Z,28.15
2018-03-02T08:07:22.101Z,30.20
2018-03-02T08:09:53.067Z,27.85
2018-03-02T08:12:24.095Z,28.70
2018-03-02T08:14:55.138Z,26.07
2018-03-02T08:17:26.137Z,29.10
2018-03-02T08:19:57.187Z,30.50
2018-03-02T08:22:28.208Z,28.90
2018-03-02T08:24:59.203Z,32.07
2018-03-02T08:27:30.346Z,32.80
2018-03-02T08:30:01.336Z,30.90
2018-03-02T08:32:32.309Z,31.80
2018-03-02T08:35:03.338Z,33.30
2018-03-02T08:37:34.310Z,32.93
2018-03-02T08:40:05.369Z,32.27
2018-03-02T08:42:36.359Z,34.60
2018-03-02T08:45:07.336Z,36.27
2018-03-02T08:47:38.298Z,35.13
2018-03-02T08:50:09.324Z,34.67
2018-03-02T08:52:40.291Z,33.50
2018-03-02T08:55:11.294Z,34.87
2018-03-02T08:57:42.287Z,35.87
2018-03-02T09:00:13.292Z,34.33
2018-03-02T09:02:44.279Z,35.10
2018-03-02T09:05:15.254Z,34.83
2018-03-02T09:07:46.249Z,35.13
2018-03-02T09:10:17.266Z,35.67
2018-03-02T09:12:48.230Z,35.03
2018-03-02T09:15:19.200Z,33.27
2018-03-02T09:17:50.243Z,36.33
2018-03-02T09:20:21.255Z,37.13
2018-03-02T09:22:52.287Z,34.53
2018-03-02T09:25:23.291Z,35.10
2018-03-02T09:27:54.309Z,35.20
2018-03-02T09:30:25.252Z,35.07
2018-03-02T09:32:56.261Z,35.40
2018-03-02T09:35:27.257Z,33.87
2018-03-02T09:37:58.249Z,36.10
2018-03-02T09:40:29.198Z,36.23
2018-03-02T09:43:00.185Z,35.67
2018-03-02T09:45:31.164Z,35.23
2018-03-02T09:48:02.125Z,36.77
2018-03-02T09:50:33.215Z,39.07
2018-03-02T09:53:04.221Z,38.90
2018-03-02T09:55:35.266Z,36.43
2018-03-02T09:58:06.255Z,41.17
2018-03-02T10:00:37.273Z,38.47
2018-03-02T10:03:08.211Z,36.87
2018-03-02T10:05:39.200Z,36.93
2018-03-02T10:08:10.184Z,38.23
2018-03-02T10:10:41.183Z,38.47
2018-03-02T10:13:12.165Z,36.57
2018-03-02T10:15:43.198Z,37.77
2018-03-02T10:18:14.187Z,39.23
2018-03-02T10:20:45.201Z,36.40
2018-03-02T10:23:16.199Z,37.67
2018-03-02T10:25:47.159Z,36.03
2018-03-02T10:28:18.163Z,35.23
2018-03-02T10:30:49.173Z,36.27
2018-03-02T10:33:20.155Z,36.20
2018-03-02T10:35:51.121Z,36.17
2018-03-02T10:38:22.115Z,36.57
2018-03-02T10:40:53.164Z,37.23
2018-03-02T10:43:24.234Z,36.20
2018-03-02T10:45:55.219Z,36.70
2018-03-02T10:48:26.225Z,36.30
2018-03-02T10:50:57.232Z,37.63
2018-03-02T10:53:28.196Z,36.63
2018-03-02T10:55:59.219Z,37.10
2018-03-02T10:58:30.206Z,36.73
2018-03-02T11:01:07.311Z,38.40
2018-03-02T11:03:45.475Z,37.13
2018-03-02T11:06:16.502Z,35.50
2018-03-02T11:08:47.535Z,35.40
2018-03-02T11:11:18.545Z,35.67
2018-03-02T11:13:49.541Z,37.30
2018-03-02T11:16:20.548Z,35.77
2018-03-02T11:18:51.573Z,34.77
2018-03-02T11:21:22.544Z,33.73
2018-03-02T11:23:53.551Z,34.40
2018-03-02T11:26:24.582Z,35.33
2018-03-02T11:28:55.585Z,34.07
2018-03-02T11:31:26.540Z,32.70
2018-03-02T11:33:57.517Z,33.27
2018-03-02T11:36:28.525Z,32.23
2018-03-02T11:38:59.545Z,31.33
2018-03-02T11:41:30.600Z,31.60
2018-03-02T11:44:01.611Z,30.63
2018-03-02T11:46:32.617Z,30.13
2018-03-02T11:49:03.615Z,28.13
2018-03-02T11:51:34.615Z,28.80
2018-03-02T11:54:05.588Z,31.23
2018-03-02T11:56:36.624Z,28.97
2018-03-02T11:59:07.581Z,30.05
2018-03-02T12:01:38.793Z,28.07
2018-03-02T12:04:09.821Z,28.27
2018-03-02T12:06:40.799Z,28.10
2018-03-02T12:09:11.795Z,29.30
2018-03-02T12:11:42.826Z,29.43
2018-03-02T12:14:13.857Z,27.42
2018-03-02T12:16:44.879Z,29.65
2018-03-02T12:19:15.864Z,28.77
2018-03-02T12:21:46.827Z,28.83
2018-03-02T12:24:17.842Z,29.30
2018-03-02T12:26:48.844Z,28.70
2018-03-02T12:29:19.900Z,29.27
2018-03-02T12:31:50.870Z,29.27
2018-03-02T12:34:21.839Z,27.43
2018-03-02T12:36:52.856Z,28.40
2018-03-02T12:39:23.857Z,28.50
2018-03-02T12:41:54.816Z,28.47
2018-03-02T12:44:25.865Z,29.10
2018-03-02T12:46:56.823Z,28.77
2018-03-02T12:49:27.832Z,29.13
2018-03-02T12:51:58.873Z,28.23
2018-03-02T12:54:29.909Z,28.93
2018-03-02T12:57:00.935Z,27.80
2018-03-02T12:59:31.959Z,27.00
2018-03-02T13:02:02.993Z,27.67
2018-03-02T13:04:33.985Z,27.93
2018-03-02T13:07:04.931Z,28.10
2018-03-02T13:09:35.929Z,27.00
2018-03-02T13:12:06.939Z,28.70
2018-03-02T13:14:37.964Z,26.37
2018-03-02T13:17:08.978Z,27.50
2018-03-02T13:19:40.038Z,28.17
2018-03-02T13:22:23.314Z,26.77
2018-03-02T13:24:54.333Z,27.57
2018-03-02T13:27:37.576Z,26.53
2018-03-02T13:30:08.605Z,24.93
2018-03-02T13:32:39.644Z,26.27
2018-03-02T13:35:10.701Z,26.73
2018-03-02T13:37:41.713Z,27.23
2018-03-02T13:40:25.103Z,26.30
2018-03-02T13:42:56.128Z,27.77
2018-03-02T13:45:27.210Z,26.50
2018-03-02T13:51:12.151Z,26.87
2018-03-02T13:53:43.120Z,25.70
2018-03-02T13:56:26.527Z,25.20
2018-03-02T13:58:57.531Z,26.63
2018-03-02T14:01:28.559Z,28.13
2018-03-02T14:04:12.020Z,26.20
2018-03-02T14:06:43.003Z,26.30
2018-03-02T14:09:14.006Z,27.27
2018-03-02T14:11:45.017Z,27.50
2018-03-02T14:14:15.993Z,26.87
2018-03-02T14:16:47.026Z,28.10
2018-03-02T14:19:18.059Z,28.67
2018-03-02T14:21:49.110Z,29.03
2018-03-02T14:24:20.133Z,27.03
2018-03-02T14:26:51.175Z,28.17
2018-03-02T14:29:22.195Z,31.17
2018-03-02T14:31:53.219Z,27.37
2018-03-02T14:34:24.194Z,28.13
2018-03-02T14:36:55.224Z,26.97
2018-03-02T14:39:26.202Z,27.70
2018-03-02T14:41:57.230Z,29.60
2018-03-02T14:44:28.236Z,29.03
2018-03-02T14:46:59.737Z,29.67
2018-03-02T14:49:30.780Z,29.13
2018-03-02T14:52:01.804Z,31.77
2018-03-02T14:54:32.743Z,29.33
2018-03-02T14:57:03.745Z,30.27
2018-03-02T14:59:34.758Z,30.30
2018-03-02T15:02:05.789Z,27.77
2018-03-02T15:04:36.788Z,28.77
2018-03-02T15:07:07.779Z,29.53
2018-03-02T15:09:38.832Z,29.23
2018-03-02T15:12:09.820Z,30.40
2018-03-02T15:14:40.799Z,32.00
2018-03-02T15:17:11.875Z,28.07
2018-03-02T15:19:42.878Z,29.63
2018-03-02T15:22:13.881Z,30.37
2018-03-02T15:24:44.922Z,29.30
2018-03-02T15:27:15.921Z,29.97
2018-03-02T15:29:46.946Z,30.67
2018-03-02T15:32:18.003Z,31.20
2018-03-02T15:34:48.973Z,31.30
2018-03-02T15:37:19.989Z,30.17
2018-03-02T15:39:50.978Z,30.77
2018-03-02T15:42:21.989Z,30.17
2018-03-02T15:44:53.021Z,29.60
2018-03-02T15:47:24.054Z,29.40
2018-03-02T15:49:55.085Z,30.37
2018-03-02T15:52:26.083Z,30.30
2018-03-02T15:54:57.081Z,29.80
2018-03-02T15:57:28.155Z,30.13
2018-03-02T15:59:59.249Z,30.30
2018-03-02T16:02:30.215Z,30.93
2018-03-02T16:05:01.208Z,30.73
2018-03-02T16:07:32.251Z,31.70
2018-03-02T16:10:03.321Z,29.80
2018-03-02T16:12:34.295Z,31.03
2018-03-02T16:15:05.336Z,32.07
2018-03-02T16:17:36.385Z,30.97
2018-03-02T16:20:07.359Z,31.73
2018-03-02T16:22:38.332Z,30.97
2018-03-02T16:25:09.307Z,33.53
2018-03-02T16:27:40.305Z,31.07
2018-03-02T16:30:11.307Z,30.90
2018-03-02T16:32:42.292Z,31.90
2018-03-02T16:35:13.313Z,31.17
2018-03-02T16:37:44.284Z,32.77
2018-03-02T16:40:15.274Z,32.43
2018-03-02T16:42:46.267Z,30.77
2018-03-02T16:45:17.261Z,32.47
2018-03-02T16:47:48.298Z,30.87
2018-03-02T16:50:19.314Z,31.87
2018-03-02T16:52:50.320Z,32.07
2018-03-02T16:55:21.316Z,32.00
2018-03-02T16:57:52.384Z,32.87
2018-03-02T17:00:23.316Z,32.07
2018-03-02T17:02:54.299Z,29.73
2018-03-02T17:05:25.337Z,31.80
2018-03-02T17:07:56.370Z,31.23
2018-03-02T17:10:27.353Z,32.67
2018-03-02T17:12:58.360Z,32.60
2018-03-02T17:15:29.416Z,32.70
2018-03-02T17:18:00.436Z,31.08
2018-03-02T17:20:31.422Z,34.25
2018-03-02T17:23:02.443Z,34.13
2018-03-02T17:25:33.418Z,31.02
2018-03-02T17:28:04.519Z,33.23
2018-03-02T17:30:35.552Z,31.87
2018-03-02T17:33:06.571Z,34.15
2018-03-02T17:35:37.549Z,34.83
2018-03-02T17:38:08.573Z,34.00
2018-03-02T17:40:39.564Z,33.60
2018-03-02T17:43:10.543Z,31.50
2018-03-02T17:45:41.549Z,33.87
2018-03-02T17:48:12.558Z,35.87
2018-03-02T17:50:43.578Z,33.03
2018-03-02T17:53:14.591Z,34.40
2018-03-02T17:55:45.629Z,36.00
2018-03-02T17:58:16.613Z,34.30
2018-03-02T18:00:47.611Z,34.43
2018-03-02T18:03:18.634Z,33.30
2018-03-02T18:05:49.599Z,33.78
2018-03-02T18:08:20.617Z,35.83
2018-03-02T18:10:51.620Z,34.38
2018-03-02T18:13:22.625Z,34.23
2018-03-02T18:15:53.603Z,34.63
2018-03-02T18:18:24.602Z,34.40
2018-03-02T18:20:55.693Z,35.28
2018-03-02T18:23:26.689Z,34.63
2018-03-02T18:25:57.708Z,33.83
2018-03-02T18:28:28.709Z,35.17
2018-03-02T18:30:59.750Z,35.25
2018-03-02T18:33:30.743Z,37.20
2018-03-02T18:36:01.737Z,36.83
2018-03-02T18:38:32.730Z,36.17
2018-03-02T18:41:03.752Z,37.13
2018-03-02T18:43:34.743Z,36.67
2018-03-02T18:46:05.755Z,39.67
2018-03-02T18:48:36.782Z,38.58
2018-03-02T18:51:07.747Z,37.38
2018-03-02T18:53:38.749Z,38.57
2018-03-02T18:56:09.770Z,40.15
2018-03-02T18:58:40.782Z,40.83
2018-03-02T19:01:11.803Z,38.63
2018-03-02T19:03:42.849Z,38.33
2018-03-02T19:06:13.840Z,39.00
2018-03-02T19:08:44.848Z,39.67
2018-03-02T19:11:15.851Z,41.22
2018-03-02T19:13:46.880Z,41.00
2018-03-02T19:16:17.893Z,39.70
2018-03-02T19:18:48.909Z,39.22
2018-03-02T19:21:19.878Z,40.28
2018-03-02T19:23:50.906Z,40.80
2018-03-02T19:26:21.910Z,39.78
2018-03-02T19:28:52.961Z,40.40
2018-03-02T19:31:24.122Z,40.42
2018-03-02T19:33:55.306Z,38.95
2018-03-02T19:36:27.112Z,40.55
2018-03-02T19:38:58.205Z,40.40
2018-03-02T19:41:29.337Z,39.03
2018-03-02T19:44:00.388Z,40.30
2018-03-02T19:46:31.510Z,41.72
2018-03-02T19:49:02.571Z,41.28
2018-03-02T19:51:33.702Z,41.92
2018-03-02T19:54:04.784Z,42.58
2018-03-02T19:56:35.856Z,43.92
2018-03-02T19:59:06.932Z,43.17
2018-03-02T20:01:38.019Z,40.65
2018-03-02T20:04:09.093Z,40.92
2018-03-02T20:06:40.109Z,40.80
2018-03-02T20:09:11.170Z,41.17
2018-03-02T20:11:42.185Z,40.20
2018-03-02T20:14:13.305Z,39.42
2018-03-02T20:16:44.424Z,43.10
2018-03-02T20:19:15.434Z,43.10
2018-03-02T20:21:46.480Z,44.60
2018-03-02T20:24:17.479Z,43.65
2018-03-02T20:26:48.486Z,43.20
2018-03-02T20:29:19.521Z,42.38
2018-03-02T20:31:50.554Z,41.67
2018-03-02T20:34:21.581Z,51.45
2018-03-02T20:36:52.568Z,42.58
2018-03-02T20:39:23.585Z,44.50
2018-03-02T20:41:54.573Z,41.90
2018-03-02T20:44:25.573Z,45.63
2018-03-02T20:46:56.892Z,43.15
2018-03-02T20:49:27.960Z,43.42
2018-03-02T20:51:58.940Z,43.85
2018-03-02T20:54:29.960Z,46.50
2018-03-02T20:57:00.980Z,43.63
2018-03-02T20:59:32.009Z,46.92
2018-03-02T21:02:03.045Z,46.75
2018-03-02T21:04:34.027Z,45.00
2018-03-02T21:07:05.065Z,46.20
2018-03-02T21:09:36.079Z,45.15
2018-03-02T21:12:07.084Z,49.00
2018-03-02T21:14:38.109Z,46.50
2018-03-02T21:17:09.076Z,48.28
2018-03-02T21:19:40.094Z,49.73
2018-03-02T21:22:11.064Z,50.03
2018-03-02T21:24:42.031Z,50.70
2018-03-02T21:27:13.117Z,51.67
2018-03-02T21:29:44.064Z,51.17
2018-03-02T21:32:15.092Z,51.20
2018-03-02T21:34:46.074Z,50.58
2018-03-02T21:37:17.112Z,52.23
2018-03-02T21:39:48.126Z,51.83
2018-03-02T21:42:19.144Z,53.10
2018-03-02T21:44:50.121Z,52.53
2018-03-02T21:47:21.104Z,53.03
2018-03-02T21:49:52.119Z,53.53
2018-03-02T21:52:23.102Z,54.33
2018-03-02T21:54:54.089Z,51.13
2018-03-02T21:57:25.064Z,53.70
2018-03-02T21:59:56.067Z,50.47
2018-03-02T22:02:27.071Z,51.65
2018-03-02T22:04:58.038Z,51.15
2018-03-02T22:07:29.061Z,52.53
2018-03-02T22:10:00.030Z,49.20
2018-03-02T22:12:31.046Z,47.40
2018-03-02T22:15:02.026Z,48.92
2018-03-02T22:17:33.004Z,45.87
2018-03-02T22:20:04.000Z,46.00
2018-03-02T22:22:34.981Z,43.40
2018-03-02T22:25:05.968Z,44.67
2018-03-02T22:27:37.017Z,47.57
2018-03-02T22:30:07.998Z,43.90
2018-03-02T22:32:38.962Z,44.83
2018-03-02T22:35:09.957Z,41.23
2018-03-02T22:37:41.001Z,45.72
2018-03-02T22:40:11.990Z,44.10
2018-03-02T22:42:43.020Z,43.97
2018-03-02T22:45:14.029Z,42.97
2018-03-02T22:47:45.023Z,43.05
2018-03-02T22:50:15.995Z,44.00
2018-03-02T22:52:47.012Z,46.67
2018-03-02T22:55:17.979Z,45.80
2018-03-02T22:57:49.006Z,46.20
2018-03-02T23:00:19.996Z,46.47
2018-03-02T23:02:51.012Z,45.08
2018-03-02T23:05:21.996Z,47.72
2018-03-02T23:07:53.020Z,44.87
2018-03-02T23:10:23.955Z,46.53
2018-03-02T23:12:54.958Z,44.83
2018-03-02T23:15:25.956Z,45.03
2018-03-02T23:17:56.979Z,47.33
2018-03-02T23:20:27.975Z,45.78
2018-03-02T23:22:58.937Z,45.85
2018-03-02T23:25:29.957Z,45.57
2018-03-02T23:28:00.956Z,48.28
2018-03-02T23:30:31.994Z,44.35
2018-03-02T23:33:03.025Z,46.55
2018-03-02T23:35:33.987Z,45.15
2018-03-02T23:38:04.996Z,48.73
2018-03-02T23:40:35.969Z,48.53
2018-03-02T23:43:06.984Z,46.97
2018-03-02T23:45:37.968Z,46.22
2018-03-02T23:48:08.982Z,47.90
2018-03-02T23:50:39.982Z,47.47
2018-03-02T23:53:10.963Z,48.67
2018-03-02T23:55:41.899Z,48.93
2018-03-02T23:58:12.898Z,47.17
